createdAt,value
2019-03-22T00:02:12.066Z,38.28
2019-03-22T00:04:40.939Z,38.32
2019-03-22T00:07:09.800Z,38.34
2019-03-22T00:09:38.645Z,38.36
2019-03-22T00:12:07.470Z,38.40
2019-03-22T00:14:37.087Z,38.42
2019-03-22T00:17:06.110Z,38.44
2019-03-22T00:19:35.023Z,38.48
2019-03-22T00:22:03.933Z,38.51
2019-03-22T00:24:33.109Z,38.53
2019-03-22T00:27:02.035Z,38.58
2019-03-22T00:29:30.931Z,38.61
2019-03-22T00:31:59.780Z,38.66
2019-03-22T00:34:28.738Z,38.71
2019-03-22T00:36:58.128Z,38.75
2019-03-22T00:39:26.977Z,38.78
2019-03-22T00:41:56.103Z,38.84
2019-03-22T00:44:24.970Z,38.89
2019-03-22T00:46:53.813Z,38.92
2019-03-22T00:49:22.679Z,38.95
2019-03-22T00:51:51.808Z,38.97
2019-03-22T00:54:20.989Z,38.97
2019-03-22T00:56:49.809Z,39.01
2019-03-22T00:59:18.648Z,39.05
2019-03-22T01:01:47.446Z,39.08
2019-03-22T01:04:16.293Z,39.12
2019-03-22T01:06:45.133Z,39.15
2019-03-22T01:09:13.968Z,39.16
2019-03-22T01:11:43.136Z,39.21
2019-03-22T01:14:11.976Z,39.22
2019-03-22T01:16:40.811Z,39.26
2019-03-22T01:19:09.657Z,39.29
2019-03-22T01:21:38.507Z,39.33
2019-03-22T01:24:07.326Z,39.35
2019-03-22T01:26:36.305Z,39.37
2019-03-22T01:29:05.152Z,39.38
2019-03-22T01:31:33.999Z,39.42
2019-03-22T01:34:02.936Z,39.46
2019-03-22T01:36:32.042Z,39.50
2019-03-22T01:39:01.173Z,39.53
2019-03-22T01:41:30.208Z,39.59
2019-03-22T01:43:59.037Z,39.62
2019-03-22T01:46:28.891Z,39.68
2019-03-22T01:48:57.706Z,39.71
2019-03-22T01:51:26.593Z,39.71
2019-03-22T01:53:55.484Z,39.74
2019-03-22T01:56:24.346Z,39.75
2019-03-22T01:58:53.171Z,39.74
2019-03-22T02:01:22.051Z,39.77
2019-03-22T02:03:50.909Z,39.78
2019-03-22T02:06:19.775Z,39.80
2019-03-22T02:08:48.604Z,39.84
2019-03-22T02:11:17.502Z,39.83
2019-03-22T02:13:46.873Z,39.87
2019-03-22T02:16:15.791Z,39.90
2019-03-22T02:18:45.007Z,39.92
2019-03-22T02:21:13.897Z,39.92
2019-03-22T02:23:42.783Z,39.95
2019-03-22T02:26:12.022Z,39.96
2019-03-22T02:28:41.857Z,39.97
2019-03-22T02:31:11.004Z,40.00
2019-03-22T02:33:39.844Z,40.01
2019-03-22T02:36:08.858Z,40.04
2019-03-22T02:38:37.711Z,40.07
2019-03-22T02:41:06.598Z,40.13
2019-03-22T02:43:35.476Z,40.13
2019-03-22T02:46:04.365Z,40.17
2019-03-22T02:48:33.213Z,40.20
2019-03-22T02:51:02.127Z,40.24
2019-03-22T02:53:31.072Z,40.27
2019-03-22T02:56:00.098Z,40.28
2019-03-22T02:58:29.136Z,40.33
2019-03-22T03:00:58.051Z,40.37
2019-03-22T03:03:26.905Z,40.43
2019-03-22T03:05:55.768Z,40.47
2019-03-22T03:08:24.970Z,40.53
2019-03-22T03:10:53.891Z,40.56
2019-03-22T03:13:23.117Z,40.57
2019-03-22T03:15:52.342Z,40.60
2019-03-22T03:18:21.635Z,40.60
2019-03-22T03:20:50.613Z,40.60
2019-03-22T03:23:19.920Z,40.62
2019-03-22T03:25:49.904Z,40.63
2019-03-22T03:28:18.788Z,40.67
2019-03-22T03:30:47.700Z,40.67
2019-03-22T03:33:16.580Z,40.71
2019-03-22T03:35:46.433Z,40.72
2019-03-22T03:38:15.335Z,40.74
2019-03-22T03:40:44.218Z,40.81
2019-03-22T03:43:14.370Z,40.83
2019-03-22T03:45:43.240Z,40.90
2019-03-22T03:48:12.160Z,40.93
2019-03-22T03:50:41.031Z,40.96
2019-03-22T03:53:10.026Z,40.98
2019-03-22T03:55:41.862Z,41.00
2019-03-22T03:58:10.748Z,41.00
2019-03-22T04:00:39.673Z,41.02
2019-03-22T04:03:08.586Z,41.06
2019-03-22T04:05:37.520Z,41.08
2019-03-22T04:08:06.571Z,41.11
2019-03-22T04:10:35.449Z,41.15
2019-03-22T04:13:04.478Z,41.19
2019-03-22T04:15:33.426Z,41.25
2019-03-22T04:18:02.459Z,41.31
2019-03-22T04:20:31.384Z,41.40
2019-03-22T04:23:00.341Z,41.52
2019-03-22T04:25:30.231Z,41.54
2019-03-22T04:27:59.106Z,41.58
2019-03-22T04:30:28.310Z,41.56
2019-03-22T04:32:57.287Z,41.57
2019-03-22T04:35:26.211Z,41.58
2019-03-22T04:37:55.094Z,41.62
2019-03-22T04:40:26.138Z,41.65
2019-03-22T04:42:55.518Z,41.68
2019-03-22T04:45:27.069Z,41.69
2019-03-22T04:48:04.934Z,41.74
2019-03-22T04:50:40.613Z,41.75
2019-03-22T04:53:14.821Z,41.75
2019-03-22T04:55:50.038Z,41.75
2019-03-22T04:58:20.819Z,41.75
2019-03-22T05:00:52.057Z,41.77
2019-03-22T05:03:21.383Z,41.78
2019-03-22T05:05:52.261Z,41.83
2019-03-22T05:08:25.048Z,41.84
2019-03-22T05:10:56.825Z,41.83
2019-03-22T05:13:26.933Z,41.84
2019-03-22T05:15:57.228Z,41.85
2019-03-22T05:18:29.710Z,41.86
2019-03-22T05:21:00.331Z,41.86
2019-03-22T05:23:31.224Z,41.89
2019-03-22T05:26:01.901Z,41.91
2019-03-22T05:28:32.774Z,41.93
2019-03-22T05:31:29.972Z,41.96
2019-03-22T05:33:58.857Z,41.95
2019-03-22T05:36:27.728Z,41.94
2019-03-22T05:38:56.595Z,41.97
2019-03-22T05:41:25.482Z,42.00
2019-03-22T05:43:54.334Z,42.02
2019-03-22T05:46:23.543Z,42.05
2019-03-22T05:48:55.408Z,42.09
2019-03-22T05:51:24.420Z,42.16
2019-03-22T05:53:53.373Z,42.18
2019-03-22T05:56:22.296Z,42.24
2019-03-22T05:58:51.258Z,42.31
2019-03-22T06:01:20.174Z,42.35
2019-03-22T06:03:49.391Z,42.37
2019-03-22T06:06:19.370Z,42.39
2019-03-22T06:08:48.246Z,42.38
2019-03-22T06:11:17.148Z,42.40
2019-03-22T06:13:46.008Z,42.40
2019-03-22T06:16:14.973Z,42.44
2019-03-22T06:18:43.906Z,42.47
2019-03-22T06:21:13.051Z,42.47
2019-03-22T06:23:43.265Z,42.51
2019-03-22T06:26:12.231Z,42.52
2019-03-22T06:28:41.092Z,42.52
2019-03-22T06:31:10.284Z,42.55
2019-03-22T06:33:39.526Z,42.54
2019-03-22T06:36:08.363Z,42.54
2019-03-22T06:38:37.286Z,42.56
2019-03-22T06:41:06.133Z,42.54
2019-03-22T06:43:36.454Z,42.56
2019-03-22T06:46:05.296Z,42.59
2019-03-22T06:48:34.177Z,42.58
2019-03-22T06:51:03.050Z,42.57
2019-03-22T06:53:32.331Z,42.58
2019-03-22T06:56:01.174Z,42.58
2019-03-22T06:58:30.059Z,42.60
2019-03-22T07:00:59.036Z,42.59
2019-03-22T07:03:27.916Z,42.61
2019-03-22T07:05:56.779Z,42.58
2019-03-22T07:08:25.754Z,42.57
2019-03-22T07:10:54.586Z,42.57
2019-03-22T07:13:23.798Z,42.58
2019-03-22T07:15:52.650Z,42.57
2019-03-22T07:18:21.635Z,42.56
2019-03-22T07:20:50.505Z,42.52
2019-03-22T07:23:19.373Z,42.50
2019-03-22T07:25:48.539Z,42.46
2019-03-22T07:28:17.726Z,42.41
2019-03-22T07:30:47.424Z,42.37
2019-03-22T07:33:16.645Z,42.35
2019-03-22T07:35:45.596Z,42.23
2019-03-22T07:38:14.852Z,42.15
2019-03-22T07:40:43.710Z,42.03
2019-03-22T07:43:12.596Z,41.89
2019-03-22T07:45:41.560Z,41.75
2019-03-22T07:48:10.986Z,41.58
2019-03-22T07:50:40.042Z,41.45
2019-03-22T07:53:09.605Z,41.30
2019-03-22T07:55:38.571Z,41.17
2019-03-22T07:58:07.439Z,41.05
2019-03-22T08:00:36.317Z,40.93
2019-03-22T08:03:05.320Z,40.79
2019-03-22T08:05:34.170Z,40.63
2019-03-22T08:08:03.117Z,40.47
2019-03-22T08:10:32.409Z,40.30
2019-03-22T08:13:01.251Z,40.13
2019-03-22T08:15:32.774Z,39.98
2019-03-22T08:18:01.710Z,39.79
2019-03-22T08:20:30.829Z,39.63
2019-03-22T08:22:59.719Z,39.44
2019-03-22T08:25:28.642Z,39.26
2019-03-22T08:27:57.660Z,39.08
2019-03-22T08:30:26.589Z,38.89
2019-03-22T08:32:55.481Z,38.73
2019-03-22T08:35:24.724Z,38.54
2019-03-22T08:37:53.719Z,38.42
2019-03-22T08:40:22.561Z,38.55
2019-03-22T08:42:51.464Z,38.61
2019-03-22T08:45:20.329Z,38.51
2019-03-22T08:47:49.243Z,38.58
2019-03-22T08:50:18.574Z,38.64
2019-03-22T08:52:47.425Z,38.64
2019-03-22T08:55:16.354Z,38.60
2019-03-22T08:57:45.224Z,38.58
2019-03-22T09:00:14.703Z,38.45
2019-03-22T09:02:43.678Z,38.21
2019-03-22T09:05:12.567Z,37.94
2019-03-22T09:07:41.460Z,37.65
2019-03-22T09:10:12.666Z,37.34
2019-03-22T09:12:41.647Z,37.08
2019-03-22T09:15:11.947Z,36.83
2019-03-22T09:17:40.827Z,36.54
2019-03-22T09:20:11.826Z,36.27
2019-03-22T09:22:40.979Z,35.98
2019-03-22T09:25:09.827Z,35.85
2019-03-22T09:27:38.691Z,35.73
2019-03-22T09:30:08.670Z,35.55
2019-03-22T09:32:38.727Z,35.37
2019-03-22T09:35:07.731Z,35.27
2019-03-22T09:37:36.599Z,35.09
2019-03-22T09:40:08.425Z,34.85
2019-03-22T09:42:36.901Z,34.59
2019-03-22T09:45:06.921Z,34.25
2019-03-22T09:47:35.775Z,34.03
2019-03-22T09:50:06.957Z,33.64
2019-03-22T09:52:36.742Z,33.22
2019-03-22T09:55:13.438Z,32.96
2019-03-22T09:57:36.676Z,32.89
2019-03-22T10:00:06.954Z,32.82
2019-03-22T10:02:35.787Z,32.68
2019-03-22T10:05:06.202Z,32.57
2019-03-22T10:07:35.180Z,32.45
2019-03-22T10:10:05.330Z,32.25
2019-03-22T10:12:34.295Z,32.12
2019-03-22T10:15:03.946Z,31.96
2019-03-22T10:17:34.397Z,31.68
2019-03-22T10:20:03.661Z,31.70
2019-03-22T10:22:32.629Z,31.63
2019-03-22T10:25:01.770Z,31.49
2019-03-22T10:27:30.655Z,31.40
2019-03-22T10:29:59.536Z,31.13
2019-03-22T10:32:29.496Z,30.93
2019-03-22T10:34:59.587Z,30.82
2019-03-22T10:37:28.524Z,30.73
2019-03-22T10:39:57.369Z,30.70
2019-03-22T10:42:26.298Z,30.57
2019-03-22T10:44:55.361Z,30.39
2019-03-22T10:47:25.508Z,30.23
2019-03-22T10:49:54.620Z,30.01
2019-03-22T10:52:23.591Z,29.85
2019-03-22T10:54:52.572Z,29.62
2019-03-22T10:57:21.421Z,29.40
2019-03-22T10:59:50.322Z,29.29
2019-03-22T11:02:19.252Z,29.16
2019-03-22T11:04:48.145Z,29.10
2019-03-22T11:07:17.096Z,28.88
2019-03-22T11:09:45.899Z,28.74
2019-03-22T11:12:14.776Z,28.63
2019-03-22T11:14:45.675Z,28.47
2019-03-22T11:17:14.419Z,28.39
2019-03-22T11:19:43.628Z,28.14
2019-03-22T11:22:12.521Z,27.97
2019-03-22T11:24:41.400Z,27.87
2019-03-22T11:27:10.213Z,27.70
2019-03-22T11:29:39.170Z,27.63
2019-03-22T11:32:12.517Z,27.52
2019-03-22T11:34:38.929Z,27.58
2019-03-22T11:37:07.911Z,27.56
2019-03-22T11:39:37.240Z,27.48
2019-03-22T11:42:06.099Z,27.43
2019-03-22T11:44:34.974Z,27.28
2019-03-22T11:47:03.926Z,27.20
2019-03-22T11:49:33.620Z,27.16
2019-03-22T11:52:02.510Z,26.80
2019-03-22T11:54:31.426Z,26.43
2019-03-22T11:57:00.559Z,26.27
2019-03-22T11:59:29.413Z,26.31
2019-03-22T12:01:58.337Z,26.11
2019-03-22T12:04:27.303Z,25.81
2019-03-22T12:06:56.377Z,25.46
2019-03-22T12:09:25.297Z,25.16
2019-03-22T12:11:54.187Z,24.88
2019-03-22T12:14:23.115Z,24.59
2019-03-22T12:16:52.032Z,24.31
2019-03-22T12:19:20.988Z,24.07
2019-03-22T12:21:49.924Z,23.99
2019-03-22T12:24:18.850Z,24.04
2019-03-22T12:26:47.747Z,24.33
2019-03-22T12:29:17.219Z,24.36
2019-03-22T12:31:45.977Z,24.15
2019-03-22T12:34:15.038Z,24.03
2019-03-22T12:36:45.692Z,23.79
2019-03-22T12:39:14.560Z,23.57
2019-03-22T12:41:43.824Z,23.43
2019-03-22T12:44:13.054Z,23.23
2019-03-22T12:46:42.133Z,22.97
2019-03-22T12:49:10.990Z,22.76
2019-03-22T12:51:40.326Z,22.65
2019-03-22T12:54:09.359Z,22.49
2019-03-22T12:56:38.159Z,22.44
2019-03-22T12:59:06.982Z,22.39
2019-03-22T13:01:36.770Z,22.42
2019-03-22T13:04:05.668Z,22.40
2019-03-22T13:06:34.517Z,22.26
2019-03-22T13:09:06.926Z,22.32
2019-03-22T13:11:36.301Z,22.26
2019-03-22T13:14:05.081Z,22.26
2019-03-22T13:16:33.939Z,22.16
2019-03-22T13:19:02.896Z,22.00
2019-03-22T13:21:32.354Z,21.88
2019-03-22T13:24:01.239Z,21.81
2019-03-22T13:26:30.452Z,21.76
2019-03-22T13:28:59.740Z,21.79
2019-03-22T13:31:28.741Z,21.87
2019-03-22T13:33:57.615Z,21.80
2019-03-22T13:36:26.472Z,21.72
2019-03-22T13:38:55.399Z,21.66
2019-03-22T13:41:24.295Z,21.59
2019-03-22T13:43:53.343Z,21.58
2019-03-22T13:46:22.609Z,21.60
2019-03-22T13:48:51.546Z,21.68
2019-03-22T13:51:20.490Z,21.68
2019-03-22T13:53:49.795Z,21.61
2019-03-22T13:56:18.729Z,21.60
2019-03-22T13:58:48.563Z,21.56
2019-03-22T14:01:17.433Z,21.50
2019-03-22T14:03:46.354Z,21.50
2019-03-22T14:06:16.454Z,21.50
2019-03-22T14:08:46.531Z,21.41
2019-03-22T14:11:15.461Z,21.49
2019-03-22T14:13:45.618Z,21.62
2019-03-22T14:16:14.688Z,21.63
2019-03-22T14:18:44.030Z,21.57
2019-03-22T14:21:12.949Z,21.55
2019-03-22T14:23:42.250Z,21.48
2019-03-22T14:26:11.067Z,21.45
2019-03-22T14:28:39.942Z,21.30
2019-03-22T14:31:08.869Z,21.23
2019-03-22T14:33:38.179Z,21.30
2019-03-22T14:36:07.036Z,21.40
2019-03-22T14:38:36.195Z,21.45
2019-03-22T14:41:05.130Z,21.51
2019-03-22T14:43:35.621Z,21.51
2019-03-22T14:46:04.669Z,21.60
2019-03-22T14:48:33.507Z,21.76
2019-03-22T14:51:02.801Z,21.94
2019-03-22T14:53:31.716Z,22.03
2019-03-22T14:56:00.655Z,22.11
2019-03-22T14:58:29.524Z,22.14
2019-03-22T15:00:58.325Z,22.19
2019-03-22T15:03:27.595Z,22.12
2019-03-22T15:05:57.431Z,22.11
2019-03-22T15:08:26.251Z,22.20
2019-03-22T15:10:55.129Z,22.23
2019-03-22T15:13:31.753Z,22.25
2019-03-22T15:16:14.176Z,22.34
2019-03-22T15:18:52.228Z,22.57
2019-03-22T15:21:39.686Z,22.68
2019-03-22T15:24:26.641Z,22.78
2019-03-22T15:27:27.261Z,22.89
2019-03-22T15:30:05.127Z,22.98
2019-03-22T15:33:02.037Z,23.03
2019-03-22T15:35:48.814Z,23.08
2019-03-22T15:38:40.152Z,23.15
2019-03-22T15:41:09.097Z,23.27
2019-03-22T15:43:38.155Z,23.53
2019-03-22T15:46:07.127Z,23.67
2019-03-22T15:48:35.976Z,23.76
2019-03-22T15:51:04.873Z,23.79
2019-03-22T15:53:33.699Z,23.87
2019-03-22T15:56:04.613Z,23.93
2019-03-22T15:58:33.452Z,23.92
2019-03-22T16:01:02.523Z,23.95
2019-03-22T16:03:32.556Z,23.94
2019-03-22T16:06:01.810Z,23.98
2019-03-22T16:08:30.684Z,24.01
2019-03-22T16:10:59.572Z,24.05
2019-03-22T16:13:28.434Z,24.13
2019-03-22T16:15:57.580Z,24.17
2019-03-22T16:18:26.454Z,24.18
2019-03-22T16:20:59.973Z,24.22
2019-03-22T16:23:26.236Z,24.26
2019-03-22T16:25:55.040Z,24.32
2019-03-22T16:28:23.903Z,24.41
2019-03-22T16:30:52.698Z,24.57
2019-03-22T16:33:21.573Z,24.68
2019-03-22T16:35:50.467Z,24.76
2019-03-22T16:38:19.357Z,24.78
2019-03-22T16:40:48.518Z,24.79
2019-03-22T16:43:17.480Z,24.82
2019-03-22T16:45:46.296Z,24.80
2019-03-22T16:48:27.584Z,24.81
2019-03-22T16:51:08.313Z,24.89
2019-03-22T16:53:40.951Z,25.01
2019-03-22T16:56:09.824Z,25.11
2019-03-22T16:58:38.766Z,25.19
2019-03-22T17:01:07.731Z,25.21
2019-03-22T17:03:37.065Z,25.21
2019-03-22T17:06:05.967Z,25.24
2019-03-22T17:08:35.135Z,25.24
2019-03-22T17:11:04.662Z,25.27
2019-03-22T17:13:33.655Z,25.30
2019-03-22T17:16:02.515Z,25.37
2019-03-22T17:18:31.755Z,25.41
2019-03-22T17:21:00.646Z,25.48
2019-03-22T17:23:29.491Z,25.55
2019-03-22T17:25:58.380Z,25.62
2019-03-22T17:28:27.313Z,25.68
2019-03-22T17:30:56.174Z,25.75
2019-03-22T17:33:25.031Z,25.82
2019-03-22T17:35:53.880Z,25.89
2019-03-22T17:38:24.566Z,25.98
2019-03-22T17:40:54.902Z,26.03
2019-03-22T17:43:23.801Z,26.11
2019-03-22T17:45:52.769Z,26.17
2019-03-22T17:48:21.640Z,26.25
2019-03-22T17:50:50.549Z,26.34
2019-03-22T17:53:19.581Z,26.41
2019-03-22T17:55:48.478Z,26.48
2019-03-22T17:58:18.460Z,26.56
2019-03-22T18:00:47.668Z,26.64
2019-03-22T18:03:16.510Z,26.72
2019-03-22T18:05:45.807Z,26.81
2019-03-22T18:08:14.753Z,26.87
2019-03-22T18:10:43.787Z,26.98
2019-03-22T18:13:13.163Z,27.06
2019-03-22T18:15:42.101Z,27.13
2019-03-22T18:18:11.062Z,27.19
2019-03-22T18:20:40.139Z,27.27
2019-03-22T18:23:09.207Z,27.35
2019-03-22T18:25:38.802Z,27.45
2019-03-22T18:28:07.758Z,27.54
2019-03-22T18:30:36.636Z,27.62
2019-03-22T18:33:05.501Z,27.72
2019-03-22T18:35:34.712Z,27.83
2019-03-22T18:40:52.556Z,28.04
2019-03-22T18:43:20.909Z,28.08
2019-03-22T18:45:50.110Z,28.21
2019-03-22T18:48:18.587Z,28.29
2019-03-22T18:50:56.425Z,28.45
2019-03-22T18:53:17.578Z,28.58
2019-03-22T18:55:45.939Z,28.73
2019-03-22T18:58:14.437Z,28.92
2019-03-22T19:00:42.969Z,29.07
2019-03-22T19:03:11.772Z,29.23
2019-03-22T19:05:40.504Z,29.39
2019-03-22T19:08:08.925Z,29.55
2019-03-22T19:10:37.185Z,29.67
2019-03-22T19:13:07.716Z,29.79
2019-03-22T19:15:39.113Z,29.90
2019-03-22T19:18:07.662Z,29.99
2019-03-22T19:20:37.084Z,30.06
2019-03-22T19:23:05.580Z,30.14
2019-03-22T19:25:34.034Z,30.24
2019-03-22T19:28:02.593Z,30.33
2019-03-22T19:30:31.215Z,30.41
2019-03-22T19:32:59.885Z,30.52
2019-03-22T19:35:28.352Z,30.57
2019-03-22T19:37:56.796Z,30.66
2019-03-22T19:40:25.441Z,30.77
2019-03-22T19:42:54.738Z,30.88
2019-03-22T19:45:23.190Z,30.95
2019-03-22T19:47:51.648Z,31.04
2019-03-22T19:50:20.240Z,31.12
2019-03-22T19:52:48.614Z,31.24
2019-03-22T19:55:18.412Z,31.33
2019-03-22T19:57:46.913Z,31.39
2019-03-22T20:00:15.549Z,31.47
2019-03-22T20:02:44.206Z,31.56
2019-03-22T20:05:27.269Z,31.64
2019-03-22T20:07:55.865Z,31.74
2019-03-22T20:10:24.453Z,31.80
2019-03-22T20:12:54.065Z,31.92
2019-03-22T20:15:22.588Z,32.02
2019-03-22T20:17:51.429Z,32.09
2019-03-22T20:20:19.987Z,32.24
2019-03-22T20:22:48.657Z,32.28
2019-03-22T20:25:17.578Z,32.37
2019-03-22T20:28:05.554Z,32.44
2019-03-22T20:30:35.231Z,32.55
2019-03-22T20:33:04.166Z,32.60
2019-03-22T20:35:32.721Z,32.67
2019-03-22T20:38:02.367Z,32.74
2019-03-22T20:40:30.885Z,32.79
2019-03-22T20:42:59.785Z,32.88
2019-03-22T20:45:28.706Z,32.94
2019-03-22T20:47:57.708Z,33.01
2019-03-22T20:50:35.388Z,33.07
2019-03-22T20:53:04.195Z,33.16
2019-03-22T20:55:33.115Z,33.19
2019-03-22T20:58:11.472Z,33.25
2019-03-22T21:00:40.375Z,33.33
2019-03-22T21:03:09.324Z,33.38
2019-03-22T21:05:39.509Z,33.41
2019-03-22T21:08:08.443Z,33.49
2019-03-22T21:10:37.539Z,33.55
2019-03-22T21:13:06.608Z,33.58
2019-03-22T21:15:35.853Z,33.69
2019-03-22T21:18:12.806Z,33.73
2019-03-22T21:20:41.760Z,33.83
2019-03-22T21:23:11.041Z,33.89
2019-03-22T21:25:41.042Z,33.95
2019-03-22T21:28:10.544Z,34.01
2019-03-22T21:30:48.248Z,34.08
2019-03-22T21:33:17.558Z,34.18
2019-03-22T21:35:48.631Z,34.24
2019-03-22T21:38:18.392Z,34.31
2019-03-22T21:40:47.471Z,34.35
2019-03-22T21:43:16.806Z,34.45
2019-03-22T21:45:45.711Z,34.53
2019-03-22T21:48:16.027Z,34.61
2019-03-22T21:50:45.318Z,34.68
2019-03-22T21:53:14.531Z,34.71
2019-03-22T21:55:43.460Z,34.78
2019-03-22T21:58:13.010Z,34.86
2019-03-22T22:00:45.695Z,34.94
2019-03-22T22:03:23.784Z,35.02
2019-03-22T22:05:56.137Z,35.11
2019-03-22T22:08:25.389Z,35.10
2019-03-22T22:10:59.607Z,35.18
2019-03-22T22:13:25.461Z,35.22
2019-03-22T22:15:54.326Z,35.31
2019-03-22T22:18:23.217Z,35.36
2019-03-22T22:20:52.089Z,35.44
2019-03-22T22:23:21.301Z,35.52
2019-03-22T22:25:50.247Z,35.59
2019-03-22T22:28:19.532Z,35.65
2019-03-22T22:30:50.694Z,35.73
2019-03-22T22:33:27.904Z,35.79
2019-03-22T22:35:58.994Z,35.86
2019-03-22T22:38:27.577Z,35.93
2019-03-22T22:40:56.816Z,36.01
2019-03-22T22:43:25.831Z,36.11
2019-03-22T22:45:55.075Z,36.20
2019-03-22T22:48:23.954Z,36.32
2019-03-22T22:50:52.804Z,36.48
2019-03-22T22:53:21.892Z,36.54
2019-03-22T22:55:50.923Z,36.54
2019-03-22T22:58:19.831Z,36.56
2019-03-22T23:00:50.295Z,36.61
2019-03-22T23:03:21.081Z,36.67
2019-03-22T23:05:50.062Z,36.70
2019-03-22T23:08:19.058Z,36.77
2019-03-22T23:10:48.965Z,36.80
2019-03-22T23:13:17.927Z,36.87
2019-03-22T23:15:46.967Z,36.89
2019-03-22T23:18:16.114Z,36.95
2019-03-22T23:20:45.350Z,37.00
2019-03-22T23:23:14.776Z,37.05
2019-03-22T23:25:44.097Z,37.12
2019-03-22T23:28:13.521Z,37.18
2019-03-22T23:30:43.617Z,37.23
2019-03-22T23:33:13.010Z,37.27
2019-03-22T23:35:41.985Z,37.29
2019-03-22T23:38:10.873Z,37.37
2019-03-22T23:40:40.458Z,37.43
2019-03-22T23:43:09.344Z,37.48
2019-03-22T23:45:39.634Z,37.52
2019-03-22T23:48:08.623Z,37.59
2019-03-22T23:50:37.484Z,37.65
2019-03-22T23:53:06.384Z,37.74
2019-03-22T23:55:35.242Z,37.78
2019-03-22T23:58:04.207Z,37.82
